Terminal Aerodrome Forecast
Issued by NWS Louisville, KY

Home | Current Version | Previous Version | Text Only | Print | Product List | Glossary On
Versions: 1 2 3 4 5 6 7 8 9 10 11 12 13 14 15 16 17 18 19 20 21
000
FTUS43 KLMK 232300
TAFSDF
TAF
KSDF 232320Z 2400/2506 36005KT 3SM -RASNPL BR BKN030
      TEMPO 2400/2404 2SM -SN BR BKN012
     FM240400 VRB05KT P6SM SCT025 BKN060
     FM241500 25008KT P6SM SCT025=

USA.gov is the U.S. government's official web portal to all federal, state and local government web resources and services.